Terminal Aerodrome Forecast
Issued by NWS Grand Rapids, MI

Home | Current Version | Previous Version | Text Only | Print | Product List | Glossary On
Versions: 1 2 3 4 5 6 7 8 9 10 11 12 13 14 15 16 17
000
FTUS43 KGRR 080541
TAFGRR
TAF
KGRR 080541Z 0806/0906 26015G23KT P6SM -SHSN OVC015
     FM081200 27014G22KT 3SM -SHSN BR OVC015
     FM081500 27016G25KT 2SM -SHSN BLSN OVC015
     FM082100 28013G22KT 4SM -SHSN BR OVC025
     FM090000 30011KT P6SM OVC025=

USA.gov is the U.S. government's official web portal to all federal, state and local government web resources and services.